Time;durP1;ratioP1;P1;durP2;ratioP2;P2;SDS_P1;SDS_P2;PMS_P1;PMS_P2;Temp;Humidity;BMP_temperature;BMP_pressure;BME280_temperature;BME280_humidity;BME280_pressure;Samples;Min_cycle;Max_cycle;Signal;HPM_P1;HPM_P2
2021/11/28 00:00:24;;;;;;;6.03;2.53;;;;;;;;;;5005782;28;20135;-58
2021/11/28 00:02:50;;;;;;;5.65;2.10;;;;;;;;;;5004116;28;20393;-58
2021/11/28 00:05:17;;;;;;;4.82;2.05;;;;;;;;;;5004455;28;20040;-58
2021/11/28 00:07:50;;;;;;;3.83;1.98;;;;;;;;;;5002340;28;20049;-58
2021/11/28 00:13:05;;;;;;;4.70;2.28;;;;;;;;;;5002008;28;20079;-59
2021/11/28 00:15:31;;;;;;;5.15;1.80;;;;;;;;;;5002651;28;20032;-58
2021/11/28 00:17:57;;;;;;;6.05;2.00;;;;;;;;;;5005739;28;20029;-58
2021/11/28 00:20:23;;;;;;;4.38;2.03;;;;;;;;;;5001657;28;20030;-58
2021/11/28 00:22:49;;;;;;;3.58;1.70;;;;;;;;;;5001303;28;20029;-59
2021/11/28 00:25:16;;;;;;;4.15;2.08;;;;;;;;;;5003747;28;20036;-58
2021/11/28 00:27:43;;;;;;;7.20;1.95;;;;;;;;;;5003399;28;20029;-58
2021/11/28 00:30:14;;;;;;;2.70;1.65;;;;;;;;;;5000774;28;20409;-58
2021/11/28 00:32:40;;;;;;;3.20;1.60;;;;;;;;;;5003012;28;20029;-58
2021/11/28 00:35:06;;;;;;;4.53;1.83;;;;;;;;;;5001712;28;20527;-59
2021/11/28 00:37:32;;;;;;;7.20;2.13;;;;;;;;;;5002405;28;20030;-59
2021/11/28 00:39:57;;;;;;;6.53;2.03;;;;;;;;;;5001908;28;20117;-58
2021/11/28 00:42:23;;;;;;;4.00;1.95;;;;;;;;;;5002023;28;20453;-59
2021/11/28 00:44:48;;;;;;;2.63;1.58;;;;;;;;;;5009626;28;20081;-58
2021/11/28 00:47:14;;;;;;;6.32;2.25;;;;;;;;;;5002204;28;20030;-58
2021/11/28 00:49:49;;;;;;;3.83;1.70;;;;;;;;;;4999640;28;20030;-58
2021/11/28 00:52:14;;;;;;;4.72;2.20;;;;;;;;;;5007784;28;20029;-59
2021/11/28 00:54:41;;;;;;;3.42;1.83;;;;;;;;;;5004649;28;20037;-59
2021/11/28 00:57:08;;;;;;;3.00;1.48;;;;;;;;;;5001785;28;20042;-58
2021/11/28 00:59:33;;;;;;;4.00;1.58;;;;;;;;;;5003596;28;20033;-58
2021/11/28 01:01:59;;;;;;;3.35;1.50;;;;;;;;;;5004506;28;20448;-59
2021/11/28 01:04:24;;;;;;;2.95;2.08;;;;;;;;;;4999699;28;20026;-57
2021/11/28 01:06:50;;;;;;;3.90;1.67;;;;;;;;;;5003129;28;20080;-58
2021/11/28 01:09:15;;;;;;;5.72;1.77;;;;;;;;;;5001817;28;20053;-58
2021/11/28 01:11:42;;;;;;;5.88;1.73;;;;;;;;;;5003869;28;20417;-58
2021/11/28 01:14:07;;;;;;;4.25;1.90;;;;;;;;;;5002241;28;20026;-58
2021/11/28 01:16:34;;;;;;;7.13;1.90;;;;;;;;;;5003246;28;20075;-57
2021/11/28 01:19:00;;;;;;;6.57;2.20;;;;;;;;;;4999931;28;20033;-57
2021/11/28 01:21:26;;;;;;;4.55;1.95;;;;;;;;;;5006877;28;20022;-57
2021/11/28 01:23:53;;;;;;;4.10;1.77;;;;;;;;;;5003650;28;20037;-57
2021/11/28 01:26:19;;;;;;;3.65;1.73;;;;;;;;;;5005902;28;20033;-57
2021/11/28 01:28:44;;;;;;;4.30;2.22;;;;;;;;;;5000528;28;20463;-58
2021/11/28 01:31:10;;;;;;;5.10;1.85;;;;;;;;;;5002330;28;20025;-57
2021/11/28 01:33:35;;;;;;;2.97;2.00;;;;;;;;;;5003103;28;20026;-58
2021/11/28 01:36:01;;;;;;;4.82;2.35;;;;;;;;;;5002647;28;20448;-58
2021/11/28 01:38:27;;;;;;;4.25;2.28;;;;;;;;;;5000298;28;20030;-57
2021/11/28 01:40:54;;;;;;;5.10;2.20;;;;;;;;;;5000131;28;20048;-57
2021/11/28 01:43:20;;;;;;;5.28;2.47;;;;;;;;;;5004849;28;20096;-58
2021/11/28 01:45:48;;;;;;;4.05;1.98;;;;;;;;;;5002341;28;20504;-58
2021/11/28 01:48:15;;;;;;;6.60;2.00;;;;;;;;;;5004014;28;20037;-56
2021/11/28 01:50:43;;;;;;;6.55;2.40;;;;;;;;;;5006243;28;20034;-57
2021/11/28 01:53:13;;;;;;;3.65;2.00;;;;;;;;;;5002025;28;20033;-58
2021/11/28 01:55:39;;;;;;;3.90;1.95;;;;;;;;;;5001854;28;20033;-58
2021/11/28 01:58:06;;;;;;;4.95;2.33;;;;;;;;;;4998259;28;20156;-57
2021/11/28 02:00:44;;;;;;;6.57;2.60;;;;;;;;;;4999587;28;20033;-57
2021/11/28 02:03:12;;;;;;;6.43;2.20;;;;;;;;;;5003432;28;20141;-57
2021/11/28 02:05:41;;;;;;;4.00;1.85;;;;;;;;;;5001153;28;20456;-58
2021/11/28 02:08:06;;;;;;;6.05;2.20;;;;;;;;;;4996839;28;20124;-57
2021/11/28 02:10:32;;;;;;;9.00;2.17;;;;;;;;;;5000455;28;20113;-58
2021/11/28 02:12:58;;;;;;;5.25;1.98;;;;;;;;;;5002563;28;20523;-58
2021/11/28 02:15:23;;;;;;;5.25;1.98;;;;;;;;;;5000602;28;20061;-58
2021/11/28 02:17:52;;;;;;;4.65;2.03;;;;;;;;;;5001145;28;20029;-58
2021/11/28 02:20:21;;;;;;;4.93;2.42;;;;;;;;;;5000591;28;20049;-58
2021/11/28 02:22:46;;;;;;;6.28;3.35;;;;;;;;;;4999606;28;20509;-58
2021/11/28 02:25:12;;;;;;;21.60;8.13;;;;;;;;;;5002798;28;20034;-58
2021/11/28 02:27:38;;;;;;;28.40;11.80;;;;;;;;;;5006329;28;20029;-57
2021/11/28 02:30:06;;;;;;;31.05;14.32;;;;;;;;;;5005334;28;20062;-58
2021/11/28 02:32:32;;;;;;;28.63;12.85;;;;;;;;;;5001664;28;20026;-59
2021/11/28 02:34:57;;;;;;;20.05;8.77;;;;;;;;;;5007431;28;20072;-57
2021/11/28 02:37:23;;;;;;;9.75;4.65;;;;;;;;;;5003865;28;20028;-58
2021/11/28 02:39:48;;;;;;;9.82;3.55;;;;;;;;;;5004862;28;20030;-58
2021/11/28 02:42:19;;;;;;;10.25;3.28;;;;;;;;;;5007841;28;20040;-58
2021/11/28 02:44:45;;;;;;;6.18;3.00;;;;;;;;;;5004812;28;20046;-58
2021/11/28 02:47:11;;;;;;;6.85;3.20;;;;;;;;;;5006594;28;20239;-58
2021/11/28 02:49:37;;;;;;;8.60;2.75;;;;;;;;;;5004198;28;20034;-58
2021/11/28 02:52:03;;;;;;;13.35;3.17;;;;;;;;;;5003423;28;20080;-58
2021/11/28 02:54:28;;;;;;;6.57;2.70;;;;;;;;;;5007845;28;20410;-58
2021/11/28 02:56:54;;;;;;;7.00;2.13;;;;;;;;;;5006090;28;20092;-59
2021/11/28 02:59:19;;;;;;;12.18;2.88;;;;;;;;;;5001371;28;20025;-58
2021/11/28 03:01:45;;;;;;;4.88;2.20;;;;;;;;;;5008017;28;20141;-59
2021/11/28 03:04:11;;;;;;;5.68;2.60;;;;;;;;;;5007969;28;20033;-59
2021/11/28 03:06:36;;;;;;;17.48;7.07;;;;;;;;;;5004228;28;20526;-58
2021/11/28 03:09:04;;;;;;;30.23;12.57;;;;;;;;;;4998407;28;20037;-59
2021/11/28 03:11:29;;;;;;;30.05;15.15;;;;;;;;;;5003561;28;20314;-57
2021/11/28 03:13:55;;;;;;;29.20;14.63;;;;;;;;;;5004463;28;20099;-58
2021/11/28 03:16:23;;;;;;;28.08;14.32;;;;;;;;;;5005546;28;20061;-57
2021/11/28 03:18:51;;;;;;;27.05;14.63;;;;;;;;;;5003801;28;20029;-58
2021/11/28 03:21:19;;;;;;;24.58;14.65;;;;;;;;;;5004116;28;20026;-58
2021/11/28 03:23:47;;;;;;;26.55;14.25;;;;;;;;;;5000790;28;20033;-58
2021/11/28 03:26:18;;;;;;;23.45;12.60;;;;;;;;;;5003183;28;20092;-58
2021/11/28 03:28:50;;;;;;;23.05;11.52;;;;;;;;;;5004886;28;20548;-58
2021/11/28 03:31:16;;;;;;;28.88;12.30;;;;;;;;;;5006727;28;20026;-57
2021/11/28 03:33:42;;;;;;;21.00;10.73;;;;;;;;;;5001532;28;20030;-57
2021/11/28 03:36:10;;;;;;;18.88;9.80;;;;;;;;;;5000910;28;20025;-58
2021/11/28 03:38:38;;;;;;;18.77;9.43;;;;;;;;;;5001225;28;20404;-59
2021/11/28 03:41:05;;;;;;;21.48;10.05;;;;;;;;;;5004616;28;20116;-59
2021/11/28 03:43:30;;;;;;;20.35;10.02;;;;;;;;;;5004773;28;20053;-57
2021/11/28 03:45:56;;;;;;;18.13;9.68;;;;;;;;;;5003868;28;20061;-57
2021/11/28 03:48:21;;;;;;;17.70;9.43;;;;;;;;;;5000885;28;20088;-58
2021/11/28 03:50:47;;;;;;;16.80;9.27;;;;;;;;;;5000673;28;20493;-58
2021/11/28 03:53:12;;;;;;;15.27;8.63;;;;;;;;;;5004522;28;20038;-58
2021/11/28 03:55:38;;;;;;;20.55;9.45;;;;;;;;;;5001041;28;20100;-58
2021/11/28 03:58:05;;;;;;;21.20;9.07;;;;;;;;;;5002935;28;20022;-58
2021/11/28 04:00:31;;;;;;;21.77;10.07;;;;;;;;;;5003530;28;20038;-58
2021/11/28 04:02:56;;;;;;;17.85;9.50;;;;;;;;;;5002025;28;20107;-58
2021/11/28 04:05:22;;;;;;;19.50;11.15;;;;;;;;;;4999039;28;20109;-59
2021/11/28 04:07:47;;;;;;;21.65;11.40;;;;;;;;;;5004222;28;20033;-56
2021/11/28 04:10:13;;;;;;;22.05;12.30;;;;;;;;;;5003966;28;20409;-59
2021/11/28 04:12:38;;;;;;;26.35;12.52;;;;;;;;;;5001098;28;20048;-58
2021/11/28 04:15:05;;;;;;;24.20;12.90;;;;;;;;;;5002433;28;20053;-58
2021/11/28 04:17:31;;;;;;;20.88;12.05;;;;;;;;;;4997013;28;20568;-57
2021/11/28 04:19:57;;;;;;;23.73;11.75;;;;;;;;;;5002097;28;20057;-57
2021/11/28 04:22:22;;;;;;;23.40;12.73;;;;;;;;;;5001132;28;20050;-57
2021/11/28 04:24:49;;;;;;;24.02;11.48;;;;;;;;;;5003467;28;20061;-57
2021/11/28 04:27:14;;;;;;;23.45;11.27;;;;;;;;;;5007748;28;20030;-57
2021/11/28 04:29:41;;;;;;;21.27;10.57;;;;;;;;;;5007360;28;20049;-59
2021/11/28 04:32:06;;;;;;;20.65;10.07;;;;;;;;;;5000820;28;20038;-58
2021/11/28 04:34:32;;;;;;;22.30;10.48;;;;;;;;;;5003554;28;20056;-59
2021/11/28 04:36:57;;;;;;;19.75;9.88;;;;;;;;;;5003249;28;20041;-59
2021/11/28 04:39:23;;;;;;;17.05;9.43;;;;;;;;;;4999395;28;20550;-58
2021/11/28 04:41:48;;;;;;;17.15;9.60;;;;;;;;;;4998855;28;20042;-59
2021/11/28 04:44:14;;;;;;;21.23;11.20;;;;;;;;;;5005624;28;20033;-59
2021/11/28 04:46:40;;;;;;;24.52;12.13;;;;;;;;;;5003236;28;20037;-59
2021/11/28 04:49:06;;;;;;;19.95;11.45;;;;;;;;;;5003934;28;20036;-59
2021/11/28 04:51:32;;;;;;;24.83;11.57;;;;;;;;;;5002676;28;20192;-58
2021/11/28 04:53:58;;;;;;;23.65;11.10;;;;;;;;;;5002428;28;20563;-59
2021/11/28 04:56:25;;;;;;;21.20;11.20;;;;;;;;;;5000279;28;20385;-59
2021/11/28 04:58:50;;;;;;;24.63;11.60;;;;;;;;;;5000237;28;20387;-58
2021/11/28 05:01:16;;;;;;;18.95;9.75;;;;;;;;;;5001916;28;20298;-59
2021/11/28 05:03:42;;;;;;;18.23;9.82;;;;;;;;;;5001934;28;20041;-59
2021/11/28 05:06:07;;;;;;;17.60;7.88;;;;;;;;;;5004291;28;20179;-58
2021/11/28 05:08:33;;;;;;;13.52;8.15;;;;;;;;;;4998542;28;20034;-59
2021/11/28 05:10:58;;;;;;;16.98;8.05;;;;;;;;;;4999682;28;20076;-58
2021/11/28 05:13:24;;;;;;;14.23;7.20;;;;;;;;;;5007827;28;20034;-58
2021/11/28 05:15:49;;;;;;;19.30;7.97;;;;;;;;;;5003668;28;20073;-58
2021/11/28 05:18:15;;;;;;;13.40;7.90;;;;;;;;;;4999365;28;20022;-58
2021/11/28 05:20:40;;;;;;;15.88;8.95;;;;;;;;;;5003112;28;20072;-59
2021/11/28 05:23:06;;;;;;;17.92;9.07;;;;;;;;;;5008315;28;20063;-58
2021/11/28 05:25:31;;;;;;;16.90;9.10;;;;;;;;;;4999701;28;20054;-58
2021/11/28 05:27:57;;;;;;;18.90;9.70;;;;;;;;;;5002268;28;20033;-58
2021/11/28 05:30:22;;;;;;;18.00;9.07;;;;;;;;;;5002386;28;20075;-58
2021/11/28 05:32:47;;;;;;;15.05;9.73;;;;;;;;;;4996512;28;20456;-59
2021/11/28 05:35:13;;;;;;;17.67;8.65;;;;;;;;;;4998373;28;20616;-58
2021/11/28 05:37:38;;;;;;;18.95;8.65;;;;;;;;;;5001791;28;20041;-58
2021/11/28 05:40:04;;;;;;;13.70;7.90;;;;;;;;;;5004370;28;20026;-58
2021/11/28 05:42:30;;;;;;;13.70;7.82;;;;;;;;;;5002520;28;20416;-57
2021/11/28 05:44:55;;;;;;;14.30;7.18;;;;;;;;;;5002834;28;20120;-58
2021/11/28 05:47:21;;;;;;;11.38;6.72;;;;;;;;;;5004559;28;20054;-58
2021/11/28 05:49:46;;;;;;;17.63;7.35;;;;;;;;;;5004040;28;20030;-58
2021/11/28 05:52:12;;;;;;;16.58;7.90;;;;;;;;;;5013563;28;20057;-58
2021/11/28 05:54:37;;;;;;;14.80;7.03;;;;;;;;;;5004173;28;20052;-58
2021/11/28 05:57:04;;;;;;;11.98;6.63;;;;;;;;;;5004690;28;20034;-58
2021/11/28 05:59:29;;;;;;;16.38;7.28;;;;;;;;;;5002225;28;20034;-58
2021/11/28 06:01:55;;;;;;;15.93;7.28;;;;;;;;;;5003270;28;20044;-58
2021/11/28 06:04:21;;;;;;;14.30;7.85;;;;;;;;;;5006358;28;20054;-59
2021/11/28 06:06:47;;;;;;;12.52;6.35;;;;;;;;;;5005819;28;20058;-58
2021/11/28 06:09:12;;;;;;;10.13;5.57;;;;;;;;;;5005370;28;20405;-59
2021/11/28 06:11:38;;;;;;;10.88;5.45;;;;;;;;;;5002584;28;20022;-60
2021/11/28 06:14:04;;;;;;;9.07;5.10;;;;;;;;;;5005289;28;20053;-59
2021/11/28 06:16:30;;;;;;;11.00;4.80;;;;;;;;;;5006829;28;20044;-58
2021/11/28 06:18:55;;;;;;;8.05;4.60;;;;;;;;;;5006163;28;20684;-59
2021/11/28 06:21:21;;;;;;;8.82;4.72;;;;;;;;;;5002674;28;20021;-59
2021/11/28 06:23:46;;;;;;;8.60;4.63;;;;;;;;;;5007639;28;20087;-59
2021/11/28 06:26:12;;;;;;;10.70;5.03;;;;;;;;;;5001539;28;20109;-59
2021/11/28 06:28:38;;;;;;;10.95;4.78;;;;;;;;;;5005361;28;20494;-59
2021/11/28 06:31:03;;;;;;;10.30;5.00;;;;;;;;;;5003420;28;20021;-60
2021/11/28 06:33:29;;;;;;;8.38;4.68;;;;;;;;;;5002579;28;20053;-59
2021/11/28 06:35:54;;;;;;;12.05;4.90;;;;;;;;;;5000479;28;20027;-59
2021/11/28 06:38:20;;;;;;;9.30;4.45;;;;;;;;;;5003561;28;20026;-58
2021/11/28 06:40:45;;;;;;;8.95;4.07;;;;;;;;;;5009301;28;20056;-59
2021/11/28 06:43:11;;;;;;;7.55;4.00;;;;;;;;;;5004525;28;20030;-60
2021/11/28 06:45:37;;;;;;;10.15;4.50;;;;;;;;;;5004677;28;20077;-60
2021/11/28 06:48:03;;;;;;;10.13;4.80;;;;;;;;;;4997929;28;20022;-59
2021/11/28 06:50:28;;;;;;;15.45;6.65;;;;;;;;;;5005203;28;20109;-59
2021/11/28 06:52:54;;;;;;;38.17;13.95;;;;;;;;;;5007147;28;20053;-59
2021/11/28 06:55:19;;;;;;;11.02;5.60;;;;;;;;;;5001948;28;20124;-59
2021/11/28 06:57:45;;;;;;;14.63;5.55;;;;;;;;;;5000139;28;20033;-59
2021/11/28 07:00:11;;;;;;;10.88;5.55;;;;;;;;;;5002443;28;20124;-59
2021/11/28 07:02:36;;;;;;;10.40;5.45;;;;;;;;;;5003501;28;20500;-58
2021/11/28 07:05:02;;;;;;;8.80;5.32;;;;;;;;;;5004775;28;20116;-59
2021/11/28 07:07:28;;;;;;;12.68;6.18;;;;;;;;;;5003346;28;20026;-59
2021/11/28 07:09:54;;;;;;;16.25;6.03;;;;;;;;;;5001083;28;20382;-60
2021/11/28 07:12:20;;;;;;;11.10;5.68;;;;;;;;;;5011307;28;20060;-59
2021/11/28 07:14:45;;;;;;;8.65;4.88;;;;;;;;;;5003133;28;20037;-59
2021/11/28 07:17:11;;;;;;;14.30;6.80;;;;;;;;;;5001705;28;20038;-59
2021/11/28 07:19:36;;;;;;;13.73;7.00;;;;;;;;;;5005984;28;20287;-58
2021/11/28 07:22:03;;;;;;;13.48;6.50;;;;;;;;;;5005895;28;20030;-59
2021/11/28 07:24:28;;;;;;;9.82;4.88;;;;;;;;;;5005810;28;20026;-59
2021/11/28 07:26:54;;;;;;;11.25;5.47;;;;;;;;;;5003026;28;20036;-58
2021/11/28 07:29:20;;;;;;;11.57;5.20;;;;;;;;;;5003259;28;20447;-59
2021/11/28 07:31:45;;;;;;;10.10;6.22;;;;;;;;;;5004453;28;20049;-59
2021/11/28 07:34:11;;;;;;;11.68;5.47;;;;;;;;;;5006335;28;20070;-59
2021/11/28 07:36:37;;;;;;;11.50;5.95;;;;;;;;;;5003732;28;20504;-59
2021/11/28 07:39:04;;;;;;;10.70;5.97;;;;;;;;;;5009048;28;20045;-58
2021/11/28 07:41:29;;;;;;;14.48;5.53;;;;;;;;;;5011399;28;20037;-58
2021/11/28 07:43:55;;;;;;;7.13;4.55;;;;;;;;;;5001111;28;20034;-59
2021/11/28 07:46:20;;;;;;;10.70;4.70;;;;;;;;;;5003611;28;20026;-58
2021/11/28 07:48:46;;;;;;;6.63;4.18;;;;;;;;;;5003511;28;20030;-59
2021/11/28 07:51:11;;;;;;;7.85;4.30;;;;;;;;;;5003715;28;20512;-59
2021/11/28 07:53:38;;;;;;;9.10;4.15;;;;;;;;;;5002120;28;20026;-58
2021/11/28 07:56:04;;;;;;;10.77;3.80;;;;;;;;;;5005885;28;20159;-59
2021/11/28 07:58:30;;;;;;;7.82;3.30;;;;;;;;;;5001455;28;20309;-58
2021/11/28 08:00:56;;;;;;;5.95;3.83;;;;;;;;;;5004209;28;20056;-59
2021/11/28 08:03:21;;;;;;;5.63;3.85;;;;;;;;;;5001472;28;20053;-59
2021/11/28 08:05:47;;;;;;;10.38;4.07;;;;;;;;;;5003380;28;20453;-58
2021/11/28 08:08:15;;;;;;;10.68;4.30;;;;;;;;;;5003995;28;20034;-58
2021/11/28 08:10:41;;;;;;;6.93;3.90;;;;;;;;;;5002881;28;20468;-58
2021/11/28 08:13:07;;;;;;;8.82;3.72;;;;;;;;;;5004578;28;20121;-60
2021/11/28 08:15:32;;;;;;;10.00;3.60;;;;;;;;;;5005748;28;20104;-59
2021/11/28 08:17:58;;;;;;;6.00;3.20;;;;;;;;;;5006080;28;20384;-59
2021/11/28 08:20:23;;;;;;;9.48;4.45;;;;;;;;;;5000797;28;20196;-58
2021/11/28 08:22:49;;;;;;;9.23;4.85;;;;;;;;;;5000152;28;20029;-59
2021/11/28 08:25:16;;;;;;;9.52;3.88;;;;;;;;;;4995793;28;20022;-58
2021/11/28 08:27:42;;;;;;;8.45;4.25;;;;;;;;;;5001778;28;20113;-59
2021/11/28 08:30:13;;;;;;;19.98;8.52;;;;;;;;;;4999013;28;20058;-58
2021/11/28 08:32:40;;;;;;;13.05;6.18;;;;;;;;;;5002291;28;20026;-60
2021/11/28 08:35:07;;;;;;;11.43;5.32;;;;;;;;;;5000720;28;20026;-59
2021/11/28 08:37:33;;;;;;;12.23;5.30;;;;;;;;;;5000817;28;20112;-58
2021/11/28 08:39:59;;;;;;;11.48;5.57;;;;;;;;;;5003690;28;20579;-59
2021/11/28 08:42:24;;;;;;;17.73;7.25;;;;;;;;;;4997851;28;20139;-60
2021/11/28 08:44:50;;;;;;;12.77;6.60;;;;;;;;;;5007546;28;20025;-58
2021/11/28 08:47:15;;;;;;;14.40;6.35;;;;;;;;;;5003795;28;20030;-58
2021/11/28 08:49:41;;;;;;;20.27;8.23;;;;;;;;;;5001789;28;20033;-59
2021/11/28 08:52:07;;;;;;;21.58;8.70;;;;;;;;;;5000194;28;20539;-60
2021/11/28 08:54:33;;;;;;;19.13;7.63;;;;;;;;;;5000456;28;20033;-59
2021/11/28 08:56:59;;;;;;;24.10;10.05;;;;;;;;;;4999079;28;20033;-60
2021/11/28 08:59:26;;;;;;;19.75;8.55;;;;;;;;;;5005637;28;20026;-60
2021/11/28 09:01:52;;;;;;;18.55;8.07;;;;;;;;;;5002985;28;20472;-60
2021/11/28 09:04:17;;;;;;;12.38;5.88;;;;;;;;;;5004630;28;20511;-59
2021/11/28 09:06:43;;;;;;;14.10;5.55;;;;;;;;;;4998766;28;20049;-59
2021/11/28 09:09:08;;;;;;;7.47;4.32;;;;;;;;;;5002910;28;20036;-60
2021/11/28 09:11:34;;;;;;;6.53;3.67;;;;;;;;;;4998685;28;20041;-58
2021/11/28 09:13:59;;;;;;;7.25;3.47;;;;;;;;;;5003310;28;20029;-59
2021/11/28 09:16:25;;;;;;;7.28;3.65;;;;;;;;;;5003859;28;20389;-59
2021/11/28 09:18:55;;;;;;;9.05;3.35;;;;;;;;;;5002690;28;20077;-61
2021/11/28 09:21:21;;;;;;;7.20;4.40;;;;;;;;;;5001015;28;20048;-59
2021/11/28 09:26:32;;;;;;;7.53;4.10;;;;;;;;;;5003980;28;20463;-59
2021/11/28 09:29:00;;;;;;;5.60;3.47;;;;;;;;;;5002873;28;20030;-60
2021/11/28 09:31:26;;;;;;;26.63;12.20;;;;;;;;;;5000588;28;20044;-60
2021/11/28 09:33:51;;;;;;;17.30;8.65;;;;;;;;;;4997901;28;20465;-60
2021/11/28 09:36:17;;;;;;;18.52;7.00;;;;;;;;;;4998749;28;20311;-58
2021/11/28 09:38:43;;;;;;;16.88;7.35;;;;;;;;;;4996735;28;20025;-59
2021/11/28 09:41:11;;;;;;;13.68;7.10;;;;;;;;;;4996447;28;20500;-59
2021/11/28 09:43:40;;;;;;;20.27;7.32;;;;;;;;;;4999204;28;20029;-59
2021/11/28 09:46:07;;;;;;;9.15;4.30;;;;;;;;;;5007963;28;20041;-60
2021/11/28 09:48:35;;;;;;;13.68;5.10;;;;;;;;;;5001514;28;20099;-60
2021/11/28 09:51:06;;;;;;;23.55;9.27;;;;;;;;;;5001647;28;20056;-60
2021/11/28 09:53:33;;;;;;;11.10;5.93;;;;;;;;;;5001399;28;20026;-61
2021/11/28 09:56:00;;;;;;;8.35;4.18;;;;;;;;;;4999992;28;20104;-59
2021/11/28 09:58:27;;;;;;;12.57;6.78;;;;;;;;;;4997972;28;20029;-58
2021/11/28 10:00:53;;;;;;;6.75;3.90;;;;;;;;;;5000730;28;20496;-59
2021/11/28 10:03:19;;;;;;;7.72;3.92;;;;;;;;;;5002221;28;20033;-60
2021/11/28 10:05:45;;;;;;;10.10;5.22;;;;;;;;;;5002959;28;20083;-59
2021/11/28 10:08:11;;;;;;;7.05;4.35;;;;;;;;;;5001887;28;20022;-59
2021/11/28 10:10:37;;;;;;;9.38;4.10;;;;;;;;;;5000158;28;20116;-59
2021/11/28 10:13:02;;;;;;;6.50;3.25;;;;;;;;;;5000615;28;20105;-59
2021/11/28 10:15:30;;;;;;;11.85;4.80;;;;;;;;;;5002889;28;20421;-58
2021/11/28 10:17:58;;;;;;;8.82;3.67;;;;;;;;;;5002026;28;20030;-59
2021/11/28 10:20:26;;;;;;;9.32;4.80;;;;;;;;;;5001425;28;20401;-60
2021/11/28 10:22:52;;;;;;;11.75;5.38;;;;;;;;;;5000465;28;20112;-62
2021/11/28 10:25:27;;;;;;;6.75;3.33;;;;;;;;;;5002895;28;20034;-59
2021/11/28 10:27:55;;;;;;;7.53;2.88;;;;;;;;;;4999224;28;20026;-60
2021/11/28 10:30:26;;;;;;;12.77;3.95;;;;;;;;;;5001008;28;20120;-59
2021/11/28 10:32:52;;;;;;;14.20;4.80;;;;;;;;;;5000602;28;20029;-58
2021/11/28 10:35:18;;;;;;;9.07;3.70;;;;;;;;;;5001740;28;20033;-56
2021/11/28 10:37:47;;;;;;;18.38;5.20;;;;;;;;;;4999959;28;20084;-58
2021/11/28 10:40:21;;;;;;;22.75;6.70;;;;;;;;;;5003017;28;20395;-59
2021/11/28 10:42:49;;;;;;;13.65;4.97;;;;;;;;;;5002267;28;20029;-59
2021/11/28 10:45:21;;;;;;;12.73;4.25;;;;;;;;;;5002792;28;20504;-58
2021/11/28 10:47:51;;;;;;;8.85;3.60;;;;;;;;;;5002399;28;20031;-59
2021/11/28 10:50:22;;;;;;;;;;;;;;;;;;5007844;28;20414;-58
2021/11/28 10:52:51;;;;;;;21.25;5.25;;;;;;;;;;5005252;28;19924;-60
2021/11/28 10:55:28;;;;;;;11.65;5.15;;;;;;;;;;5002499;28;20484;-58
2021/11/28 10:58:06;;;;;;;22.83;7.07;;;;;;;;;;5003743;28;20042;-59
2021/11/28 11:00:32;;;;;;;23.77;8.48;;;;;;;;;;5005078;28;20567;-58
2021/11/28 11:02:57;;;;;;;18.90;5.90;;;;;;;;;;5003103;28;20029;-61
2021/11/28 11:05:25;;;;;;;24.63;8.10;;;;;;;;;;5003374;28;20125;-59
2021/11/28 11:07:54;;;;;;;15.77;6.47;;;;;;;;;;5006142;28;20595;-60
2021/11/28 11:10:29;;;;;;;9.90;6.00;;;;;;;;;;5004063;28;20175;-59
2021/11/28 11:12:55;;;;;;;10.50;5.60;;;;;;;;;;5004556;28;20397;-60
2021/11/28 11:15:45;;;;;;;8.82;5.10;;;;;;;;;;5003327;28;20030;-59
2021/11/28 11:18:16;;;;;;;7.93;4.50;;;;;;;;;;5001446;28;20056;-57
2021/11/28 11:20:50;;;;;;;10.10;6.05;;;;;;;;;;5005302;28;20022;-59
2021/11/28 11:23:34;;;;;;;8.57;5.20;;;;;;;;;;5007678;28;20034;-57
2021/11/28 11:26:18;;;;;;;9.75;4.53;;;;;;;;;;4999361;28;20046;-58
2021/11/28 11:29:06;;;;;;;6.50;3.78;;;;;;;;;;5004122;28;20065;-58
2021/11/28 11:31:32;;;;;;;8.45;4.85;;;;;;;;;;5001453;28;20440;-59
2021/11/28 11:33:58;;;;;;;7.45;5.07;;;;;;;;;;5006844;28;20104;-60
2021/11/28 11:36:55;;;;;;;9.05;4.97;;;;;;;;;;5002186;28;20121;-59
2021/11/28 11:39:22;;;;;;;10.52;4.30;;;;;;;;;;4998870;28;20018;-59
2021/11/28 11:41:48;;;;;;;8.68;4.43;;;;;;;;;;5013050;28;20385;-59
2021/11/28 11:44:16;;;;;;;7.72;4.47;;;;;;;;;;5007484;28;20037;-58
2021/11/28 11:46:46;;;;;;;11.43;4.03;;;;;;;;;;5002710;28;20025;-57
2021/11/28 11:49:17;;;;;;;13.07;3.75;;;;;;;;;;5004109;28;20038;-57
2021/11/28 11:51:43;;;;;;;8.50;3.95;;;;;;;;;;5004546;28;20408;-57
2021/11/28 11:54:24;;;;;;;8.05;3.42;;;;;;;;;;5003856;28;20392;-59
2021/11/28 11:57:04;;;;;;;5.60;3.83;;;;;;;;;;5004061;28;22547;-59
2021/11/28 11:59:42;;;;;;;8.23;3.95;;;;;;;;;;5002211;28;20496;-59
2021/11/28 12:02:07;;;;;;;7.38;4.55;;;;;;;;;;4999211;28;20136;-59
2021/11/28 12:04:42;;;;;;;8.10;5.60;;;;;;;;;;5002854;28;20113;-58
2021/11/28 12:07:08;;;;;;;8.05;5.25;;;;;;;;;;5005522;28;20045;-60
2021/11/28 12:09:35;;;;;;;8.70;5.10;;;;;;;;;;5005316;28;20034;-60
2021/11/28 12:12:06;;;;;;;9.43;4.93;;;;;;;;;;5002271;28;20492;-59
2021/11/28 12:14:32;;;;;;;8.90;4.45;;;;;;;;;;5008999;28;20030;-58
2021/11/28 12:16:58;;;;;;;7.03;4.63;;;;;;;;;;5003110;28;20134;-59
2021/11/28 12:19:38;;;;;;;9.55;5.07;;;;;;;;;;5005744;28;20026;-59
2021/11/28 12:22:04;;;;;;;7.70;4.75;;;;;;;;;;5001844;28;20064;-58
2021/11/28 12:24:29;;;;;;;8.30;4.53;;;;;;;;;;5000973;28;20077;-58
2021/11/28 12:27:00;;;;;;;10.70;5.22;;;;;;;;;;5006547;28;20026;-59
2021/11/28 12:29:39;;;;;;;9.63;5.25;;;;;;;;;;5002617;28;20112;-58
2021/11/28 12:32:23;;;;;;;11.48;6.30;;;;;;;;;;5000280;28;20038;-58
2021/11/28 12:34:57;;;;;;;10.60;6.13;;;;;;;;;;5003324;28;20099;-60
2021/11/28 12:37:29;;;;;;;9.60;5.45;;;;;;;;;;5002907;28;20041;-58
2021/11/28 12:40:17;;;;;;;9.45;5.38;;;;;;;;;;5003890;28;20404;-59
2021/11/28 12:42:43;;;;;;;9.35;4.82;;;;;;;;;;5008002;28;20021;-58
2021/11/28 12:45:08;;;;;;;9.32;4.95;;;;;;;;;;5004949;28;20567;-58
2021/11/28 12:47:35;;;;;;;11.45;5.25;;;;;;;;;;5001999;28;20026;-58
2021/11/28 12:50:24;;;;;;;11.43;5.47;;;;;;;;;;5001729;28;20105;-59
2021/11/28 12:52:51;;;;;;;13.63;5.88;;;;;;;;;;5002157;28;20542;-59
2021/11/28 12:55:21;;;;;;;10.32;5.57;;;;;;;;;;5002032;28;20072;-59
2021/11/28 12:57:56;;;;;;;11.27;5.70;;;;;;;;;;5002029;28;20045;-60
2021/11/28 13:00:35;;;;;;;9.88;5.35;;;;;;;;;;5004256;28;20917;-58
2021/11/28 13:03:17;;;;;;;30.73;7.47;;;;;;;;;;5003933;28;20523;-58
2021/11/28 13:05:53;;;;;;;13.07;5.18;;;;;;;;;;5001512;28;20160;-59
2021/11/28 13:08:18;;;;;;;10.32;5.15;;;;;;;;;;5005639;28;20029;-58
2021/11/28 13:10:54;;;;;;;10.35;5.70;;;;;;;;;;5001677;28;20042;-59
2021/11/28 13:13:27;;;;;;;9.32;4.85;;;;;;;;;;5004519;28;20056;-58
2021/11/28 13:15:56;;;;;;;7.78;4.72;;;;;;;;;;4995268;28;20108;-59
2021/11/28 13:18:53;;;;;;;10.95;6.28;;;;;;;;;;4999294;28;20105;-58
2021/11/28 13:21:24;;;;;;;11.10;6.57;;;;;;;;;;5000941;28;20033;-58
2021/11/28 13:23:51;;;;;;;8.63;5.43;;;;;;;;;;4999634;28;21919;-59
2021/11/28 13:26:19;;;;;;;10.38;5.00;;;;;;;;;;4997656;28;20093;-59
2021/11/28 13:28:46;;;;;;;6.40;4.63;;;;;;;;;;5002036;28;20112;-57
2021/11/28 13:31:22;;;;;;;7.38;4.47;;;;;;;;;;5000528;28;20026;-58
2021/11/28 13:33:53;;;;;;;8.90;5.43;;;;;;;;;;5003322;28;20037;-59
2021/11/28 13:36:20;;;;;;;10.57;5.60;;;;;;;;;;5002716;28;20527;-58
2021/11/28 13:38:49;;;;;;;11.43;5.63;;;;;;;;;;5006568;28;20099;-58
2021/11/28 13:41:24;;;;;;;10.30;4.75;;;;;;;;;;5002453;28;20110;-59
2021/11/28 13:44:16;;;;;;;9.27;5.07;;;;;;;;;;5002098;28;20038;-59
2021/11/28 13:46:51;;;;;;;8.95;5.43;;;;;;;;;;5001451;28;20027;-59
2021/11/28 13:49:26;;;;;;;10.02;5.72;;;;;;;;;;5000919;28;20306;-59
2021/11/28 13:52:01;;;;;;;9.63;5.57;;;;;;;;;;5002626;28;20033;-59
2021/11/28 13:54:40;;;;;;;10.18;5.90;;;;;;;;;;5008084;28;20040;-61
2021/11/28 13:57:08;;;;;;;12.32;6.40;;;;;;;;;;4999243;28;20030;-58
2021/11/28 13:59:40;;;;;;;13.73;5.85;;;;;;;;;;5001845;28;20018;-58
2021/11/28 14:02:20;;;;;;;13.65;5.70;;;;;;;;;;4997720;28;20042;-60
2021/11/28 14:04:52;;;;;;;11.25;5.43;;;;;;;;;;5001264;28;20436;-58
2021/11/28 14:07:20;;;;;;;20.08;6.90;;;;;;;;;;5000335;28;20340;-59
2021/11/28 14:09:50;;;;;;;19.77;7.23;;;;;;;;;;4996759;28;20023;-58
2021/11/28 14:12:30;;;;;;;17.35;6.22;;;;;;;;;;4998660;28;20025;-58
2021/11/28 14:15:02;;;;;;;14.98;5.93;;;;;;;;;;4998962;28;20026;-60
2021/11/28 14:17:29;;;;;;;23.05;8.40;;;;;;;;;;5003830;28;20037;-58
2021/11/28 14:19:56;;;;;;;24.00;8.50;;;;;;;;;;5003794;28;20097;-59
2021/11/28 14:22:38;;;;;;;16.65;7.20;;;;;;;;;;4998711;28;20030;-59
2021/11/28 14:25:28;;;;;;;13.55;5.63;;;;;;;;;;5005907;28;20061;-58
2021/11/28 14:28:15;;;;;;;10.18;4.82;;;;;;;;;;5002847;28;21798;-59
2021/11/28 14:30:57;;;;;;;12.77;6.47;;;;;;;;;;5022345;28;20025;-60
2021/11/28 14:33:34;;;;;;;15.52;6.00;;;;;;;;;;5003968;28;20021;-59
2021/11/28 14:36:25;;;;;;;7.18;3.75;;;;;;;;;;5003077;28;20056;-58
2021/11/28 14:38:59;;;;;;;7.18;3.55;;;;;;;;;;5002838;28;20407;-59
2021/11/28 14:41:43;;;;;;;6.45;4.15;;;;;;;;;;5003980;28;20022;-58
2021/11/28 14:44:15;;;;;;;22.13;5.38;;;;;;;;;;5004101;28;20104;-57